Sunday, August 31, 2014
02:21 UTC
  |  Log In   |  Register Free
Airport Search:

Lenawee County Airport
(KADG)

Lenawee County Airport Diagram
No Airport Diagram Available

FAA data valid effective July 24, 2014 until September 18, 2014 (unless otherwise noted).

 
 
 
 
 
 
 
 
 
 
 
 
 
 

Current Aviation Weather for Lenawee County Airport (KADG)

The most recent METAR observation for KADG was updated at: 0053 UTC
METAR Summary (Translated METAR)
KADG
310053Z AUTO 24010KT 10SM CLR 25/20 A2993 RMK AO2 LTG DSNT N SLP132 T02500200
KDUH
(20.4 nm SE from KADG)
310115Z AUTO 22008G18KT 10SM CLR 26/20 A2995 RMK AO2
TAF Summary (Translated TAF)
KTOL
(20.7 nm SE from KADG)
301731Z 3018/3118 22010G20KT P6SM SCT070 BKN120 FM301900 20012G22KT P6SM VCSH SCT050 OVC100 TEMPO 3021/3024 4SM -TSRA OVC025CB FM310200 21012KT 5SM -SHRA BKN030 OVC080 FM310900 23007KT 4SM BR OVC015 FM311400 23010KT P6SM BKN025
  Airport Weather Conditions for KADG

 Current Weather at ADG
77° F
Overcast
Southwest winds at 15.0 mph
ADG NOAA Radar

Pressure: 29.95 in
Humidity: 77%
Wind: Southwest at 15.0 MPH (13 KT)
Dew Point: 69.1°F
Visibility: 10.00 mi


Airport Weather Forecast for KADG

Translated METAR and TAF for KADG
Translated METAR for KADG (0215 UTC 31 August 2014)
found at http://aviationweather.gov/adds/metars/
 
METAR text: KADG 310153Z AUTO 23013KT 10SM FEW024 SCT029 OVC039 25/21 A2995 RMK AO2 SLP138 T02500206
Conditions at: KADG (ADRIAN , MI, US) observed 0153 UTC 31 August 2014
Temperature: 25.0°C (77°F)
Dewpoint: 20.6°C (69°F) [RH = 77%]
Pressure (altimeter): 29.95 inches Hg (1014.3 mb)
[Sea-level pressure: 1013.8 mb]
Winds: from the SW (230 degrees) at 15 MPH (13 knots; 6.8 m/s)
Visibility: 10 or more miles (16+ km)
Ceiling: 3900 feet AGL
Clouds: few clouds at 2400 feet AGL
scattered clouds at 2900 feet AGL
overcast cloud deck at 3900 feet AGL
Weather: automated observation with no human augmentation;
there may or may not be significant weather present at this time
Translated TAF for KADG

There is no translated TAF available for this airport

Find All Airport Services Find A Hotel Find A Rental Car Find A Golf Course Find A Restaurant $100 Hamburger



FBO's on the Field
FBO Company Facility Photos Services Transportation Aviation Fuel Prices: Prices include tax
Catering Weather Repair Courtesy Rental Type 100LL JetA JetA+ MOGAS 8087
 
Lenawee County Airport

This FBO has not yet been rated
FS:Avfuel
Last Updated: Aug-28
Login to update fuel prices
SS:
Contact Lenawee County AirportMore FBO Information
 
Add another FBO Facility Photos Catering Weather Repair Courtesy Rental Type 100LL JetA JetA+ MOGAS 8087
Services Transportation Aviation Fuel Prices: Prices include tax


GlobalAir.com Airport Resource Center model-print
model-print
model-print
model-print